sensor_id;sensor_type;location;lat;lon;timestamp;P1;durP1;ratioP1;P2;durP2;ratioP2
15812;SDS011;8007;51.404;6.304;2022-08-03T00:01:33;3.93;;;2.40;;
15812;SDS011;8007;51.404;6.304;2022-08-03T00:03:35;5.37;;;2.30;;
15812;SDS011;8007;51.404;6.304;2022-08-03T00:05:37;3.40;;;2.63;;
15812;SDS011;8007;51.404;6.304;2022-08-03T00:07:40;3.27;;;2.50;;
15812;SDS011;8007;51.404;6.304;2022-08-03T00:09:44;4.77;;;2.53;;
15812;SDS011;8007;51.404;6.304;2022-08-03T00:11:46;4.40;;;2.83;;
15812;SDS011;8007;51.404;6.304;2022-08-03T00:13:49;5.80;;;2.87;;
15812;SDS011;8007;51.404;6.304;2022-08-03T00:15:51;3.87;;;2.70;;
15812;SDS011;8007;51.404;6.304;2022-08-03T00:17:54;3.57;;;2.50;;
15812;SDS011;8007;51.404;6.304;2022-08-03T00:19:56;3.63;;;3.07;;
15812;SDS011;8007;51.404;6.304;2022-08-03T00:21:58;3.10;;;2.77;;
15812;SDS011;8007;51.404;6.304;2022-08-03T00:24:01;3.67;;;3.33;;
15812;SDS011;8007;51.404;6.304;2022-08-03T00:26:05;5.33;;;2.73;;
15812;SDS011;8007;51.404;6.304;2022-08-03T00:28:07;4.13;;;3.03;;
15812;SDS011;8007;51.404;6.304;2022-08-03T00:30:10;4.40;;;3.77;;
15812;SDS011;8007;51.404;6.304;2022-08-03T00:32:12;6.50;;;3.20;;
15812;SDS011;8007;51.404;6.304;2022-08-03T00:34:14;3.83;;;3.17;;
15812;SDS011;8007;51.404;6.304;2022-08-03T00:36:17;4.63;;;3.00;;
15812;SDS011;8007;51.404;6.304;2022-08-03T00:38:19;4.83;;;2.80;;
15812;SDS011;8007;51.404;6.304;2022-08-03T00:40:22;3.40;;;3.07;;
15812;SDS011;8007;51.404;6.304;2022-08-03T00:42:25;4.00;;;2.70;;
15812;SDS011;8007;51.404;6.304;2022-08-03T00:44:28;5.20;;;2.77;;
15812;SDS011;8007;51.404;6.304;2022-08-03T00:46:30;4.47;;;2.83;;
15812;SDS011;8007;51.404;6.304;2022-08-03T00:48:33;3.93;;;3.10;;
15812;SDS011;8007;51.404;6.304;2022-08-03T00:50:38;6.27;;;3.10;;
15812;SDS011;8007;51.404;6.304;2022-08-03T00:52:40;3.33;;;2.90;;
15812;SDS011;8007;51.404;6.304;2022-08-03T00:54:43;4.50;;;2.90;;
15812;SDS011;8007;51.404;6.304;2022-08-03T00:56:45;5.40;;;2.90;;
15812;SDS011;8007;51.404;6.304;2022-08-03T00:58:49;5.47;;;2.80;;
15812;SDS011;8007;51.404;6.304;2022-08-03T01:00:52;6.73;;;3.07;;
15812;SDS011;8007;51.404;6.304;2022-08-03T01:02:55;4.23;;;3.00;;
15812;SDS011;8007;51.404;6.304;2022-08-03T01:04:57;3.70;;;2.63;;
15812;SDS011;8007;51.404;6.304;2022-08-03T01:07:01;4.03;;;2.77;;
15812;SDS011;8007;51.404;6.304;2022-08-03T01:09:08;4.20;;;2.77;;
15812;SDS011;8007;51.404;6.304;2022-08-03T01:11:16;3.97;;;2.57;;
15812;SDS011;8007;51.404;6.304;2022-08-03T01:13:24;3.20;;;2.47;;
15812;SDS011;8007;51.404;6.304;2022-08-03T01:15:34;5.93;;;2.27;;
15812;SDS011;8007;51.404;6.304;2022-08-03T01:17:43;3.73;;;2.60;;
15812;SDS011;8007;51.404;6.304;2022-08-03T01:19:49;3.73;;;2.57;;
15812;SDS011;8007;51.404;6.304;2022-08-03T01:21:58;3.77;;;2.70;;
15812;SDS011;8007;51.404;6.304;2022-08-03T01:24:13;3.73;;;2.83;;
15812;SDS011;8007;51.404;6.304;2022-08-03T01:26:36;3.50;;;2.60;;
15812;SDS011;8007;51.404;6.304;2022-08-03T01:28:57;6.27;;;3.10;;
15812;SDS011;8007;51.404;6.304;2022-08-03T01:31:09;4.20;;;3.17;;
15812;SDS011;8007;51.404;6.304;2022-08-03T01:33:13;4.40;;;2.90;;
15812;SDS011;8007;51.404;6.304;2022-08-03T01:35:20;3.97;;;2.87;;
15812;SDS011;8007;51.404;6.304;2022-08-03T01:37:26;5.17;;;2.90;;
15812;SDS011;8007;51.404;6.304;2022-08-03T01:39:41;3.50;;;3.20;;
15812;SDS011;8007;51.404;6.304;2022-08-03T01:41:45;3.40;;;2.87;;
15812;SDS011;8007;51.404;6.304;2022-08-03T01:43:51;4.33;;;2.80;;
15812;SDS011;8007;51.404;6.304;2022-08-03T01:45:54;4.80;;;2.30;;
15812;SDS011;8007;51.404;6.304;2022-08-03T01:47:58;2.60;;;2.40;;
15812;SDS011;8007;51.404;6.304;2022-08-03T01:50:02;6.47;;;2.70;;
15812;SDS011;8007;51.404;6.304;2022-08-03T01:52:05;5.90;;;2.70;;
15812;SDS011;8007;51.404;6.304;2022-08-03T01:54:08;4.03;;;2.30;;
15812;SDS011;8007;51.404;6.304;2022-08-03T01:56:11;3.17;;;2.77;;
15812;SDS011;8007;51.404;6.304;2022-08-03T01:58:14;2.90;;;2.60;;
15812;SDS011;8007;51.404;6.304;2022-08-03T02:00:18;3.93;;;3.03;;
15812;SDS011;8007;51.404;6.304;2022-08-03T02:02:20;3.70;;;2.60;;
15812;SDS011;8007;51.404;6.304;2022-08-03T02:04:25;4.00;;;2.50;;
15812;SDS011;8007;51.404;6.304;2022-08-03T02:06:29;3.80;;;2.70;;
15812;SDS011;8007;51.404;6.304;2022-08-03T02:08:33;4.13;;;2.90;;
15812;SDS011;8007;51.404;6.304;2022-08-03T02:10:36;3.60;;;2.97;;
15812;SDS011;8007;51.404;6.304;2022-08-03T02:12:40;5.70;;;3.23;;
15812;SDS011;8007;51.404;6.304;2022-08-03T02:14:44;5.60;;;3.50;;
15812;SDS011;8007;51.404;6.304;2022-08-03T02:16:47;6.30;;;3.40;;
15812;SDS011;8007;51.404;6.304;2022-08-03T02:18:50;4.07;;;3.07;;
15812;SDS011;8007;51.404;6.304;2022-08-03T02:20:55;5.00;;;3.27;;
15812;SDS011;8007;51.404;6.304;2022-08-03T02:22:57;3.30;;;3.00;;
15812;SDS011;8007;51.404;6.304;2022-08-03T02:25:00;5.80;;;3.10;;
15812;SDS011;8007;51.404;6.304;2022-08-03T02:27:03;3.70;;;2.93;;
15812;SDS011;8007;51.404;6.304;2022-08-03T02:29:10;3.47;;;2.90;;
15812;SDS011;8007;51.404;6.304;2022-08-03T02:31:14;3.53;;;2.90;;
15812;SDS011;8007;51.404;6.304;2022-08-03T02:33:19;4.23;;;2.63;;
15812;SDS011;8007;51.404;6.304;2022-08-03T02:35:24;4.13;;;2.90;;
15812;SDS011;8007;51.404;6.304;2022-08-03T02:37:41;3.07;;;2.77;;
15812;SDS011;8007;51.404;6.304;2022-08-03T02:39:45;4.73;;;3.10;;
15812;SDS011;8007;51.404;6.304;2022-08-03T02:41:51;6.87;;;3.17;;
15812;SDS011;8007;51.404;6.304;2022-08-03T02:44:01;4.53;;;3.30;;
15812;SDS011;8007;51.404;6.304;2022-08-03T02:46:07;6.87;;;3.60;;
15812;SDS011;8007;51.404;6.304;2022-08-03T02:48:10;5.83;;;3.53;;
15812;SDS011;8007;51.404;6.304;2022-08-03T02:50:13;4.97;;;3.47;;
15812;SDS011;8007;51.404;6.304;2022-08-03T02:52:17;5.87;;;3.97;;
15812;SDS011;8007;51.404;6.304;2022-08-03T02:54:22;8.07;;;3.90;;
15812;SDS011;8007;51.404;6.304;2022-08-03T02:56:26;7.03;;;4.00;;
15812;SDS011;8007;51.404;6.304;2022-08-03T02:58:29;5.40;;;4.00;;
15812;SDS011;8007;51.404;6.304;2022-08-03T03:00:32;3.77;;;3.43;;
15812;SDS011;8007;51.404;6.304;2022-08-03T03:02:35;5.70;;;3.23;;
15812;SDS011;8007;51.404;6.304;2022-08-03T03:04:38;5.40;;;3.40;;
15812;SDS011;8007;51.404;6.304;2022-08-03T03:06:43;4.70;;;3.23;;
15812;SDS011;8007;51.404;6.304;2022-08-03T03:08:46;3.27;;;2.97;;
15812;SDS011;8007;51.404;6.304;2022-08-03T03:10:50;4.37;;;2.97;;
15812;SDS011;8007;51.404;6.304;2022-08-03T03:12:54;4.83;;;3.47;;
15812;SDS011;8007;51.404;6.304;2022-08-03T03:14:57;4.03;;;2.97;;
15812;SDS011;8007;51.404;6.304;2022-08-03T03:17:00;5.97;;;3.53;;
15812;SDS011;8007;51.404;6.304;2022-08-03T03:19:03;7.47;;;3.53;;
15812;SDS011;8007;51.404;6.304;2022-08-03T03:21:06;5.00;;;3.97;;
15812;SDS011;8007;51.404;6.304;2022-08-03T03:23:09;6.63;;;4.07;;
15812;SDS011;8007;51.404;6.304;2022-08-03T03:25:12;7.40;;;3.50;;
15812;SDS011;8007;51.404;6.304;2022-08-03T03:27:16;5.83;;;4.30;;
15812;SDS011;8007;51.404;6.304;2022-08-03T03:29:18;7.57;;;3.80;;
15812;SDS011;8007;51.404;6.304;2022-08-03T03:31:21;7.10;;;4.50;;
15812;SDS011;8007;51.404;6.304;2022-08-03T03:33:23;5.20;;;3.60;;
15812;SDS011;8007;51.404;6.304;2022-08-03T03:35:26;5.80;;;3.97;;
15812;SDS011;8007;51.404;6.304;2022-08-03T03:37:29;6.27;;;3.70;;
15812;SDS011;8007;51.404;6.304;2022-08-03T03:39:31;5.53;;;3.57;;
15812;SDS011;8007;51.404;6.304;2022-08-03T03:41:35;4.57;;;3.87;;
15812;SDS011;8007;51.404;6.304;2022-08-03T03:43:39;5.03;;;3.60;;
15812;SDS011;8007;51.404;6.304;2022-08-03T03:45:41;6.33;;;3.60;;
15812;SDS011;8007;51.404;6.304;2022-08-03T03:47:44;4.70;;;3.90;;
15812;SDS011;8007;51.404;6.304;2022-08-03T03:49:46;3.73;;;3.40;;
15812;SDS011;8007;51.404;6.304;2022-08-03T03:51:51;6.83;;;4.10;;
15812;SDS011;8007;51.404;6.304;2022-08-03T03:53:54;6.70;;;4.03;;
15812;SDS011;8007;51.404;6.304;2022-08-03T03:55:57;5.20;;;3.50;;
15812;SDS011;8007;51.404;6.304;2022-08-03T03:57:59;5.23;;;3.83;;
15812;SDS011;8007;51.404;6.304;2022-08-03T04:00:05;4.60;;;3.43;;
15812;SDS011;8007;51.404;6.304;2022-08-03T04:02:08;5.53;;;3.30;;
15812;SDS011;8007;51.404;6.304;2022-08-03T04:04:11;7.57;;;4.13;;
15812;SDS011;8007;51.404;6.304;2022-08-03T04:06:30;5.20;;;3.40;;
15812;SDS011;8007;51.404;6.304;2022-08-03T04:08:50;4.17;;;3.20;;
15812;SDS011;8007;51.404;6.304;2022-08-03T04:11:11;4.43;;;3.23;;
15812;SDS011;8007;51.404;6.304;2022-08-03T04:13:17;4.70;;;3.50;;
15812;SDS011;8007;51.404;6.304;2022-08-03T04:15:21;3.60;;;3.30;;
15812;SDS011;8007;51.404;6.304;2022-08-03T04:17:24;5.23;;;4.00;;
15812;SDS011;8007;51.404;6.304;2022-08-03T04:19:35;5.00;;;3.70;;
15812;SDS011;8007;51.404;6.304;2022-08-03T04:21:41;6.07;;;3.87;;
15812;SDS011;8007;51.404;6.304;2022-08-03T04:23:45;4.37;;;3.97;;
15812;SDS011;8007;51.404;6.304;2022-08-03T04:25:50;6.00;;;4.27;;
15812;SDS011;8007;51.404;6.304;2022-08-03T04:27:54;6.33;;;3.73;;
15812;SDS011;8007;51.404;6.304;2022-08-03T04:29:58;6.40;;;3.63;;
15812;SDS011;8007;51.404;6.304;2022-08-03T04:32:05;6.10;;;4.00;;
15812;SDS011;8007;51.404;6.304;2022-08-03T04:34:09;8.13;;;4.63;;
15812;SDS011;8007;51.404;6.304;2022-08-03T04:36:13;9.37;;;4.50;;
15812;SDS011;8007;51.404;6.304;2022-08-03T04:38:18;6.10;;;4.20;;
15812;SDS011;8007;51.404;6.304;2022-08-03T04:40:22;4.70;;;4.20;;
15812;SDS011;8007;51.404;6.304;2022-08-03T04:42:26;5.37;;;4.20;;
15812;SDS011;8007;51.404;6.304;2022-08-03T04:44:28;8.17;;;4.60;;
15812;SDS011;8007;51.404;6.304;2022-08-03T04:46:34;6.70;;;4.97;;
15812;SDS011;8007;51.404;6.304;2022-08-03T04:48:40;7.33;;;4.47;;
15812;SDS011;8007;51.404;6.304;2022-08-03T04:50:44;8.10;;;4.60;;
15812;SDS011;8007;51.404;6.304;2022-08-03T04:52:47;5.67;;;4.33;;
15812;SDS011;8007;51.404;6.304;2022-08-03T04:54:49;10.90;;;4.07;;
15812;SDS011;8007;51.404;6.304;2022-08-03T04:56:52;6.43;;;4.20;;
15812;SDS011;8007;51.404;6.304;2022-08-03T04:58:54;10.93;;;5.33;;
15812;SDS011;8007;51.404;6.304;2022-08-03T05:00:57;7.33;;;4.43;;
15812;SDS011;8007;51.404;6.304;2022-08-03T05:02:59;9.03;;;4.57;;
15812;SDS011;8007;51.404;6.304;2022-08-03T05:05:03;7.73;;;4.80;;
15812;SDS011;8007;51.404;6.304;2022-08-03T05:07:06;7.80;;;4.70;;
15812;SDS011;8007;51.404;6.304;2022-08-03T05:09:08;7.77;;;4.33;;
15812;SDS011;8007;51.404;6.304;2022-08-03T05:11:11;5.87;;;4.30;;
15812;SDS011;8007;51.404;6.304;2022-08-03T05:13:13;6.33;;;4.50;;
15812;SDS011;8007;51.404;6.304;2022-08-03T05:15:15;13.07;;;4.80;;
15812;SDS011;8007;51.404;6.304;2022-08-03T05:17:18;7.73;;;4.40;;
15812;SDS011;8007;51.404;6.304;2022-08-03T05:19:20;6.40;;;4.40;;
15812;SDS011;8007;51.404;6.304;2022-08-03T05:21:24;8.27;;;4.67;;
15812;SDS011;8007;51.404;6.304;2022-08-03T05:23:26;6.30;;;4.43;;
15812;SDS011;8007;51.404;6.304;2022-08-03T05:25:29;7.20;;;4.63;;
15812;SDS011;8007;51.404;6.304;2022-08-03T05:27:31;5.03;;;4.47;;
15812;SDS011;8007;51.404;6.304;2022-08-03T05:29:34;6.10;;;4.63;;
15812;SDS011;8007;51.404;6.304;2022-08-03T05:31:36;7.13;;;4.70;;
15812;SDS011;8007;51.404;6.304;2022-08-03T05:33:39;10.20;;;4.87;;
15812;SDS011;8007;51.404;6.304;2022-08-03T05:35:43;8.80;;;4.63;;
15812;SDS011;8007;51.404;6.304;2022-08-03T05:37:47;12.57;;;5.40;;
15812;SDS011;8007;51.404;6.304;2022-08-03T05:39:49;5.43;;;4.83;;
15812;SDS011;8007;51.404;6.304;2022-08-03T05:41:52;7.13;;;5.20;;
15812;SDS011;8007;51.404;6.304;2022-08-03T05:43:54;7.00;;;4.60;;
15812;SDS011;8007;51.404;6.304;2022-08-03T05:45:57;6.90;;;4.87;;
15812;SDS011;8007;51.404;6.304;2022-08-03T05:48:00;8.53;;;4.70;;
15812;SDS011;8007;51.404;6.304;2022-08-03T05:50:02;6.23;;;4.60;;
15812;SDS011;8007;51.404;6.304;2022-08-03T05:52:05;6.97;;;4.30;;
15812;SDS011;8007;51.404;6.304;2022-08-03T05:54:09;6.43;;;4.33;;
15812;SDS011;8007;51.404;6.304;2022-08-03T05:56:12;6.17;;;4.37;;
15812;SDS011;8007;51.404;6.304;2022-08-03T05:58:14;8.77;;;4.50;;
15812;SDS011;8007;51.404;6.304;2022-08-03T06:00:17;5.13;;;4.10;;
15812;SDS011;8007;51.404;6.304;2022-08-03T06:02:19;7.10;;;4.70;;
15812;SDS011;8007;51.404;6.304;2022-08-03T06:04:22;6.20;;;4.20;;
15812;SDS011;8007;51.404;6.304;2022-08-03T06:06:24;7.53;;;4.30;;
15812;SDS011;8007;51.404;6.304;2022-08-03T06:08:26;8.47;;;4.43;;
15812;SDS011;8007;51.404;6.304;2022-08-03T06:10:30;5.90;;;4.00;;
15812;SDS011;8007;51.404;6.304;2022-08-03T06:12:33;7.97;;;3.73;;
15812;SDS011;8007;51.404;6.304;2022-08-03T06:14:36;7.97;;;4.03;;
15812;SDS011;8007;51.404;6.304;2022-08-03T06:16:38;6.83;;;3.90;;
15812;SDS011;8007;51.404;6.304;2022-08-03T06:18:40;5.30;;;3.90;;
15812;SDS011;8007;51.404;6.304;2022-08-03T06:20:43;5.17;;;3.50;;
15812;SDS011;8007;51.404;6.304;2022-08-03T06:22:45;5.63;;;4.00;;
15812;SDS011;8007;51.404;6.304;2022-08-03T06:24:48;8.13;;;3.70;;
15812;SDS011;8007;51.404;6.304;2022-08-03T06:26:52;7.07;;;3.70;;
15812;SDS011;8007;51.404;6.304;2022-08-03T06:28:54;7.50;;;4.10;;
15812;SDS011;8007;51.404;6.304;2022-08-03T06:30:57;6.47;;;3.57;;
15812;SDS011;8007;51.404;6.304;2022-08-03T06:32:59;3.90;;;3.50;;
15812;SDS011;8007;51.404;6.304;2022-08-03T06:35:02;4.53;;;3.40;;
15812;SDS011;8007;51.404;6.304;2022-08-03T06:37:05;9.20;;;3.77;;
15812;SDS011;8007;51.404;6.304;2022-08-03T06:39:07;6.25;;;3.30;;
15812;SDS011;8007;51.404;6.304;2022-08-03T06:41:09;6.45;;;3.28;;
15812;SDS011;8007;51.404;6.304;2022-08-03T06:43:13;5.22;;;3.60;;
15812;SDS011;8007;51.404;6.304;2022-08-03T06:45:16;6.22;;;3.35;;
15812;SDS011;8007;51.404;6.304;2022-08-03T06:47:18;6.07;;;3.10;;
15812;SDS011;8007;51.404;6.304;2022-08-03T06:49:21;3.22;;;2.85;;
15812;SDS011;8007;51.404;6.304;2022-08-03T06:51:23;8.10;;;3.60;;
15812;SDS011;8007;51.404;6.304;2022-08-03T06:53:26;4.40;;;3.10;;
15812;SDS011;8007;51.404;6.304;2022-08-03T06:55:28;4.90;;;2.85;;
15812;SDS011;8007;51.404;6.304;2022-08-03T06:57:31;5.38;;;3.17;;
15812;SDS011;8007;51.404;6.304;2022-08-03T06:59:35;6.45;;;3.70;;
15812;SDS011;8007;51.404;6.304;2022-08-03T07:01:37;4.43;;;2.92;;
15812;SDS011;8007;51.404;6.304;2022-08-03T07:03:40;3.85;;;3.05;;
15812;SDS011;8007;51.404;6.304;2022-08-03T07:05:42;4.35;;;3.03;;
15812;SDS011;8007;51.404;6.304;2022-08-03T07:07:46;4.45;;;2.90;;
15812;SDS011;8007;51.404;6.304;2022-08-03T07:09:48;5.93;;;2.83;;
15812;SDS011;8007;51.404;6.304;2022-08-03T07:11:51;5.88;;;2.53;;
15812;SDS011;8007;51.404;6.304;2022-08-03T07:13:53;5.18;;;2.17;;
15812;SDS011;8007;51.404;6.304;2022-08-03T07:15:57;3.75;;;2.22;;
15812;SDS011;8007;51.404;6.304;2022-08-03T07:17:59;8.05;;;2.10;;
15812;SDS011;8007;51.404;6.304;2022-08-03T07:20:02;4.32;;;2.00;;
15812;SDS011;8007;51.404;6.304;2022-08-03T07:22:06;2.65;;;1.58;;
15812;SDS011;8007;51.404;6.304;2022-08-03T07:24:10;5.25;;;1.90;;
15812;SDS011;8007;51.404;6.304;2022-08-03T07:26:12;3.60;;;1.90;;
15812;SDS011;8007;51.404;6.304;2022-08-03T07:28:14;3.17;;;2.20;;
15812;SDS011;8007;51.404;6.304;2022-08-03T07:30:17;2.03;;;1.60;;
15812;SDS011;8007;51.404;6.304;2022-08-03T07:32:21;6.30;;;1.70;;
15812;SDS011;8007;51.404;6.304;2022-08-03T07:34:23;3.83;;;1.88;;
15812;SDS011;8007;51.404;6.304;2022-08-03T07:36:26;3.65;;;1.80;;
15812;SDS011;8007;51.404;6.304;2022-08-03T07:38:28;4.47;;;2.00;;
15812;SDS011;8007;51.404;6.304;2022-08-03T07:40:31;4.30;;;1.60;;
15812;SDS011;8007;51.404;6.304;2022-08-03T07:42:33;4.75;;;1.90;;
15812;SDS011;8007;51.404;6.304;2022-08-03T07:44:36;3.58;;;1.90;;
15812;SDS011;8007;51.404;6.304;2022-08-03T07:46:38;5.22;;;1.95;;
15812;SDS011;8007;51.404;6.304;2022-08-03T07:48:42;4.80;;;1.90;;
15812;SDS011;8007;51.404;6.304;2022-08-03T07:50:45;4.85;;;1.80;;
15812;SDS011;8007;51.404;6.304;2022-08-03T07:52:47;2.65;;;1.88;;
15812;SDS011;8007;51.404;6.304;2022-08-03T07:54:50;2.97;;;2.05;;
15812;SDS011;8007;51.404;6.304;2022-08-03T07:56:53;3.05;;;1.40;;
15812;SDS011;8007;51.404;6.304;2022-08-03T07:58:55;3.35;;;1.40;;
15812;SDS011;8007;51.404;6.304;2022-08-03T08:00:58;2.72;;;1.55;;
15812;SDS011;8007;51.404;6.304;2022-08-03T08:03:01;2.97;;;1.67;;
15812;SDS011;8007;51.404;6.304;2022-08-03T08:05:06;2.65;;;1.77;;
15812;SDS011;8007;51.404;6.304;2022-08-03T08:07:09;3.22;;;1.90;;
15812;SDS011;8007;51.404;6.304;2022-08-03T08:09:12;8.90;;;2.30;;
15812;SDS011;8007;51.404;6.304;2022-08-03T08:11:14;3.45;;;2.17;;
15812;SDS011;8007;51.404;6.304;2022-08-03T08:13:17;2.53;;;1.70;;
15812;SDS011;8007;51.404;6.304;2022-08-03T08:15:20;3.03;;;1.55;;
15812;SDS011;8007;51.404;6.304;2022-08-03T08:17:22;4.53;;;1.55;;
15812;SDS011;8007;51.404;6.304;2022-08-03T08:19:25;3.17;;;1.75;;
15812;SDS011;8007;51.404;6.304;2022-08-03T08:21:29;3.38;;;1.60;;
15812;SDS011;8007;51.404;6.304;2022-08-03T08:23:31;5.60;;;1.90;;
15812;SDS011;8007;51.404;6.304;2022-08-03T08:25:34;4.50;;;1.95;;
15812;SDS011;8007;51.404;6.304;2022-08-03T08:27:42;3.58;;;1.70;;
15812;SDS011;8007;51.404;6.304;2022-08-03T08:29:47;5.65;;;2.33;;
15812;SDS011;8007;51.404;6.304;2022-08-03T08:31:49;7.28;;;1.90;;
15812;SDS011;8007;51.404;6.304;2022-08-03T08:33:51;4.32;;;1.90;;
15812;SDS011;8007;51.404;6.304;2022-08-03T08:35:54;3.47;;;1.83;;
15812;SDS011;8007;51.404;6.304;2022-08-03T08:37:59;5.22;;;2.30;;
15812;SDS011;8007;51.404;6.304;2022-08-03T08:40:02;7.15;;;2.15;;
15812;SDS011;8007;51.404;6.304;2022-08-03T08:42:05;4.38;;;2.10;;
15812;SDS011;8007;51.404;6.304;2022-08-03T08:44:08;4.63;;;2.13;;
15812;SDS011;8007;51.404;6.304;2022-08-03T08:46:11;4.63;;;2.00;;
15812;SDS011;8007;51.404;6.304;2022-08-03T08:48:14;3.90;;;1.60;;
15812;SDS011;8007;51.404;6.304;2022-08-03T08:50:18;5.38;;;2.25;;
15812;SDS011;8007;51.404;6.304;2022-08-03T08:52:22;4.20;;;1.90;;
15812;SDS011;8007;51.404;6.304;2022-08-03T08:54:27;2.38;;;1.90;;
15812;SDS011;8007;51.404;6.304;2022-08-03T08:56:31;5.03;;;1.95;;
15812;SDS011;8007;51.404;6.304;2022-08-03T08:58:35;2.85;;;2.13;;
15812;SDS011;8007;51.404;6.304;2022-08-03T09:00:38;6.75;;;1.88;;
15812;SDS011;8007;51.404;6.304;2022-08-03T09:02:41;4.40;;;2.15;;
15812;SDS011;8007;51.404;6.304;2022-08-03T09:04:44;5.60;;;1.95;;
15812;SDS011;8007;51.404;6.304;2022-08-03T09:06:47;4.43;;;1.80;;
15812;SDS011;8007;51.404;6.304;2022-08-03T09:08:50;6.32;;;1.73;;
15812;SDS011;8007;51.404;6.304;2022-08-03T09:10:54;3.33;;;1.77;;
15812;SDS011;8007;51.404;6.304;2022-08-03T09:12:56;4.30;;;1.60;;
15812;SDS011;8007;51.404;6.304;2022-08-03T09:15:07;4.97;;;2.00;;
15812;SDS011;8007;51.404;6.304;2022-08-03T09:17:20;2.83;;;1.67;;
15812;SDS011;8007;51.404;6.304;2022-08-03T09:19:22;2.90;;;2.05;;
15812;SDS011;8007;51.404;6.304;2022-08-03T09:21:25;3.80;;;2.20;;
15812;SDS011;8007;51.404;6.304;2022-08-03T09:23:29;3.05;;;1.70;;
15812;SDS011;8007;51.404;6.304;2022-08-03T09:25:45;3.38;;;1.70;;
15812;SDS011;8007;51.404;6.304;2022-08-03T09:27:49;3.20;;;1.95;;
15812;SDS011;8007;51.404;6.304;2022-08-03T09:29:52;3.15;;;1.70;;
15812;SDS011;8007;51.404;6.304;2022-08-03T09:31:58;1.92;;;1.60;;
15812;SDS011;8007;51.404;6.304;2022-08-03T09:34:02;3.88;;;1.80;;
15812;SDS011;8007;51.404;6.304;2022-08-03T09:36:06;3.85;;;1.55;;
15812;SDS011;8007;51.404;6.304;2022-08-03T09:38:09;2.67;;;1.55;;
15812;SDS011;8007;51.404;6.304;2022-08-03T09:40:12;4.43;;;1.77;;
15812;SDS011;8007;51.404;6.304;2022-08-03T09:42:35;3.20;;;1.50;;
15812;SDS011;8007;51.404;6.304;2022-08-03T09:44:40;2.55;;;1.55;;
15812;SDS011;8007;51.404;6.304;2022-08-03T09:46:49;3.88;;;1.48;;
15812;SDS011;8007;51.404;6.304;2022-08-03T09:48:52;2.20;;;1.70;;
15812;SDS011;8007;51.404;6.304;2022-08-03T09:50:55;2.35;;;1.50;;
15812;SDS011;8007;51.404;6.304;2022-08-03T09:53:00;2.47;;;1.70;;
15812;SDS011;8007;51.404;6.304;2022-08-03T09:55:06;4.47;;;1.80;;
15812;SDS011;8007;51.404;6.304;2022-08-03T09:57:20;1.70;;;1.58;;
15812;SDS011;8007;51.404;6.304;2022-08-03T09:59:24;4.32;;;1.67;;
15812;SDS011;8007;51.404;6.304;2022-08-03T10:01:32;2.75;;;1.48;;
15812;SDS011;8007;51.404;6.304;2022-08-03T10:03:37;3.35;;;1.40;;
15812;SDS011;8007;51.404;6.304;2022-08-03T10:05:40;2.60;;;1.70;;
15812;SDS011;8007;51.404;6.304;2022-08-03T10:07:44;7.30;;;1.70;;
15812;SDS011;8007;51.404;6.304;2022-08-03T10:09:53;3.67;;;1.67;;
15812;SDS011;8007;51.404;6.304;2022-08-03T10:11:56;3.92;;;1.55;;
15812;SDS011;8007;51.404;6.304;2022-08-03T10:14:09;2.03;;;1.63;;
15812;SDS011;8007;51.404;6.304;2022-08-03T10:16:17;3.20;;;1.50;;
15812;SDS011;8007;51.404;6.304;2022-08-03T10:18:21;3.08;;;1.77;;
15812;SDS011;8007;51.404;6.304;2022-08-03T10:20:23;2.90;;;1.55;;
15812;SDS011;8007;51.404;6.304;2022-08-03T10:22:26;1.52;;;1.33;;
15812;SDS011;8007;51.404;6.304;2022-08-03T10:24:30;4.43;;;1.30;;
15812;SDS011;8007;51.404;6.304;2022-08-03T10:26:37;2.10;;;1.30;;
15812;SDS011;8007;51.404;6.304;2022-08-03T10:28:41;2.88;;;1.40;;
15812;SDS011;8007;51.404;6.304;2022-08-03T10:30:50;6.55;;;1.80;;
15812;SDS011;8007;51.404;6.304;2022-08-03T10:32:54;4.50;;;1.52;;
15812;SDS011;8007;51.404;6.304;2022-08-03T10:35:02;4.10;;;1.52;;
15812;SDS011;8007;51.404;6.304;2022-08-03T10:37:07;4.53;;;1.67;;
15812;SDS011;8007;51.404;6.304;2022-08-03T10:39:11;2.72;;;1.50;;
15812;SDS011;8007;51.404;6.304;2022-08-03T10:41:14;4.35;;;1.48;;
15812;SDS011;8007;51.404;6.304;2022-08-03T10:43:18;2.97;;;1.40;;
15812;SDS011;8007;51.404;6.304;2022-08-03T10:45:22;3.30;;;1.48;;
15812;SDS011;8007;51.404;6.304;2022-08-03T10:47:25;3.72;;;1.60;;
15812;SDS011;8007;51.404;6.304;2022-08-03T10:49:28;5.95;;;1.50;;
15812;SDS011;8007;51.404;6.304;2022-08-03T10:51:35;3.95;;;1.52;;
15812;SDS011;8007;51.404;6.304;2022-08-03T10:53:39;4.60;;;1.60;;
15812;SDS011;8007;51.404;6.304;2022-08-03T10:55:43;3.05;;;1.30;;
15812;SDS011;8007;51.404;6.304;2022-08-03T10:58:04;3.30;;;1.25;;
15812;SDS011;8007;51.404;6.304;2022-08-03T11:00:06;8.07;;;1.95;;
15812;SDS011;8007;51.404;6.304;2022-08-03T11:02:11;3.70;;;1.60;;
15812;SDS011;8007;51.404;6.304;2022-08-03T11:04:14;2.10;;;1.70;;
15812;SDS011;8007;51.404;6.304;2022-08-03T11:06:20;2.38;;;1.42;;
15812;SDS011;8007;51.404;6.304;2022-08-03T11:08:29;2.38;;;1.60;;
15812;SDS011;8007;51.404;6.304;2022-08-03T11:10:33;2.85;;;1.63;;
15812;SDS011;8007;51.404;6.304;2022-08-03T11:12:36;8.55;;;1.60;;
15812;SDS011;8007;51.404;6.304;2022-08-03T11:14:45;2.72;;;1.70;;
15812;SDS011;8007;51.404;6.304;2022-08-03T11:16:48;3.60;;;1.60;;
15812;SDS011;8007;51.404;6.304;2022-08-03T11:18:55;6.15;;;1.45;;
15812;SDS011;8007;51.404;6.304;2022-08-03T11:20:59;2.95;;;1.40;;
15812;SDS011;8007;51.404;6.304;2022-08-03T11:23:02;2.03;;;1.40;;
15812;SDS011;8007;51.404;6.304;2022-08-03T11:25:06;4.35;;;1.17;;
15812;SDS011;8007;51.404;6.304;2022-08-03T11:27:15;2.85;;;1.50;;
15812;SDS011;8007;51.404;6.304;2022-08-03T11:29:28;4.53;;;1.08;;
15812;SDS011;8007;51.404;6.304;2022-08-03T11:31:44;1.77;;;1.00;;
15812;SDS011;8007;51.404;6.304;2022-08-03T11:33:58;2.67;;;1.10;;
15812;SDS011;8007;51.404;6.304;2022-08-03T11:36:04;2.50;;;0.98;;
15812;SDS011;8007;51.404;6.304;2022-08-03T11:38:07;4.97;;;1.27;;
15812;SDS011;8007;51.404;6.304;2022-08-03T11:40:18;3.63;;;1.10;;
15812;SDS011;8007;51.404;6.304;2022-08-03T11:42:38;2.33;;;1.05;;
15812;SDS011;8007;51.404;6.304;2022-08-03T11:44:43;4.22;;;1.15;;
15812;SDS011;8007;51.404;6.304;2022-08-03T11:46:45;2.50;;;0.80;;
15812;SDS011;8007;51.404;6.304;2022-08-03T11:48:48;2.40;;;1.05;;
15812;SDS011;8007;51.404;6.304;2022-08-03T11:50:51;2.78;;;0.95;;
15812;SDS011;8007;51.404;6.304;2022-08-03T11:52:53;2.53;;;1.13;;
15812;SDS011;8007;51.404;6.304;2022-08-03T11:54:56;2.55;;;0.90;;
15812;SDS011;8007;51.404;6.304;2022-08-03T11:57:00;3.50;;;1.17;;
15812;SDS011;8007;51.404;6.304;2022-08-03T11:59:02;2.60;;;1.00;;
15812;SDS011;8007;51.404;6.304;2022-08-03T12:01:05;3.25;;;0.93;;
15812;SDS011;8007;51.404;6.304;2022-08-03T12:03:10;1.73;;;0.88;;
15812;SDS011;8007;51.404;6.304;2022-08-03T12:05:15;1.17;;;0.90;;
15812;SDS011;8007;51.404;6.304;2022-08-03T12:07:18;2.22;;;1.10;;
15812;SDS011;8007;51.404;6.304;2022-08-03T12:09:20;3.90;;;1.10;;
15812;SDS011;8007;51.404;6.304;2022-08-03T12:11:23;3.67;;;1.00;;
15812;SDS011;8007;51.404;6.304;2022-08-03T12:13:27;7.57;;;1.65;;
15812;SDS011;8007;51.404;6.304;2022-08-03T12:15:38;3.60;;;0.98;;
15812;SDS011;8007;51.404;6.304;2022-08-03T12:17:41;5.05;;;1.20;;
15812;SDS011;8007;51.404;6.304;2022-08-03T12:19:43;2.08;;;0.77;;
15812;SDS011;8007;51.404;6.304;2022-08-03T12:21:45;2.92;;;1.00;;
15812;SDS011;8007;51.404;6.304;2022-08-03T12:23:49;3.72;;;1.17;;
15812;SDS011;8007;51.404;6.304;2022-08-03T12:25:51;2.83;;;1.10;;
15812;SDS011;8007;51.404;6.304;2022-08-03T12:28:04;2.30;;;1.13;;
15812;SDS011;8007;51.404;6.304;2022-08-03T12:30:10;6.35;;;1.30;;
15812;SDS011;8007;51.404;6.304;2022-08-03T12:32:13;4.28;;;1.40;;
15812;SDS011;8007;51.404;6.304;2022-08-03T12:34:16;4.95;;;1.30;;
15812;SDS011;8007;51.404;6.304;2022-08-03T12:36:18;2.45;;;1.02;;
15812;SDS011;8007;51.404;6.304;2022-08-03T12:38:21;3.22;;;1.20;;
15812;SDS011;8007;51.404;6.304;2022-08-03T12:40:24;1.73;;;0.70;;